Time;durP1;ratioP1;P1;durP2;ratioP2;P2;SDS_P1;SDS_P2;PMS_P1;PMS_P2;Temp;Humidity;BMP_temperature;BMP_pressure;BME280_temperature;BME280_humidity;BME280_pressure;Samples;Min_cycle;Max_cycle;Signal;HPM_P1;HPM_P2
2023/09/20 00:00:40;;;;;;;9.43;2.80;;;;;;;;;;5113157;27;20047;-74
2023/09/20 00:03:06;;;;;;;10.88;2.90;;;;;;;;;;5095073;28;20043;-77
2023/09/20 00:05:33;;;;;;;11.00;2.80;;;;;;;;;;5112133;28;20036;-74
2023/09/20 00:08:02;;;;;;;7.03;2.83;;;;;;;;;;5094233;28;20471;-75
2023/09/20 00:10:28;;;;;;;10.90;3.03;;;;;;;;;;5094755;28;20658;-75
2023/09/20 00:12:54;;;;;;;;;;;;;;;;;;5112494;28;20142;-76
2023/09/20 00:15:21;;;;;;;8.43;2.97;;;;;;;;;;5098185;27;20017;-75
2023/09/20 00:17:48;;;;;;;10.90;3.00;;;;;;;;;;5132297;27;20051;-73
2023/09/20 00:20:16;;;;;;;12.10;2.78;;;;;;;;;;5113974;27;20039;-74
2023/09/20 00:22:45;;;;;;;8.82;2.95;;;;;;;;;;5130888;27;20051;-74
2023/09/20 00:25:12;;;;;;;11.38;3.30;;;;;;;;;;5132725;27;20051;-74
2023/09/20 00:27:45;;;;;;;9.95;3.03;;;;;;;;;;5129224;27;20060;-75
2023/09/20 00:30:14;;;;;;;8.95;3.17;;;;;;;;;;5111910;28;20047;-78
2023/09/20 00:32:43;;;;;;;9.75;3.42;;;;;;;;;;5094904;28;20048;-75
2023/09/20 00:35:10;;;;;;;10.05;3.20;;;;;;;;;;5114747;27;20035;-76
2023/09/20 00:37:40;;;;;;;11.13;3.03;;;;;;;;;;5131453;27;20039;-75
2023/09/20 00:40:15;;;;;;;11.43;2.95;;;;;;;;;;5119314;27;20069;-75
2023/09/20 00:42:42;;;;;;;16.45;3.50;;;;;;;;;;5107773;27;20126;-74
2023/09/20 00:45:09;;;;;;;12.35;3.15;;;;;;;;;;5115733;27;20043;-76
2023/09/20 00:47:36;;;;;;;8.35;2.70;;;;;;;;;;5097946;27;20377;-76
2023/09/20 00:50:02;;;;;;;12.52;2.97;;;;;;;;;;5115573;27;20542;-75
2023/09/20 00:52:28;;;;;;;;;;;;;;;;;;5113710;27;20043;-76
2023/09/20 00:54:57;;;;;;;9.77;2.67;;;;;;;;;;5115597;27;19942;-74
2023/09/20 00:57:24;;;;;;;8.48;2.60;;;;;;;;;;5123448;27;20075;-74
2023/09/20 00:59:51;;;;;;;9.18;2.47;;;;;;;;;;5135857;27;20395;-74
2023/09/20 01:02:19;;;;;;;15.60;3.00;;;;;;;;;;5116444;27;20078;-75
2023/09/20 01:04:46;;;;;;;10.38;2.90;;;;;;;;;;5101668;27;20070;-74
2023/09/20 01:07:12;;;;;;;9.65;3.05;;;;;;;;;;5112692;27;20065;-74
2023/09/20 01:09:39;;;;;;;;;;;;;;;;;;5109572;27;20046;-74
2023/09/20 01:12:06;;;;;;;10.68;2.80;;;;;;;;;;5135667;27;19969;-75
2023/09/20 01:14:32;;;;;;;7.05;2.40;;;;;;;;;;5135169;27;20448;-76
2023/09/20 01:16:58;;;;;;;;;;;;;;;;;;5135345;27;20047;-76
2023/09/20 01:19:24;;;;;;;11.50;2.70;;;;;;;;;;5135184;27;19919;-76
2023/09/20 01:21:50;;;;;;;;;;;;;;;;;;5116730;27;20047;-74
2023/09/20 01:24:18;;;;;;;8.95;2.70;;;;;;;;;;5116428;27;19919;-76
2023/09/20 01:26:45;;;;;;;5.82;2.63;;;;;;;;;;5135698;27;20479;-74
2023/09/20 01:29:12;;;;;;;8.68;2.70;;;;;;;;;;5118172;27;20077;-75
2023/09/20 01:31:38;;;;;;;9.65;2.85;;;;;;;;;;5116312;27;20051;-74
2023/09/20 01:34:04;;;;;;;9.75;2.78;;;;;;;;;;5097850;27;20047;-74
2023/09/20 01:36:30;;;;;;;7.68;2.63;;;;;;;;;;5113007;27;20384;-75
2023/09/20 01:38:56;;;;;;;;;;;;;;;;;;5119101;27;20395;-74
2023/09/20 01:41:22;;;;;;;7.57;2.45;;;;;;;;;;5134705;27;20340;-75
2023/09/20 01:43:49;;;;;;;10.80;2.80;;;;;;;;;;5115461;27;20526;-75
2023/09/20 01:46:15;;;;;;;7.07;2.63;;;;;;;;;;5107566;27;20472;-74
2023/09/20 01:48:42;;;;;;;;;;;;;;;;;;5125930;27;20050;-75
2023/09/20 01:51:08;;;;;;;;;;;;;;;;;;5095769;27;20014;-74
2023/09/20 01:53:34;;;;;;;10.60;2.53;;;;;;;;;;5095646;27;20001;-75
2023/09/20 01:56:00;;;;;;;;;;;;;;;;;;5120829;27;20039;-75
2023/09/20 01:58:26;;;;;;;9.20;2.50;;;;;;;;;;5113914;27;19981;-74
2023/09/20 02:00:52;;;;;;;;;;;;;;;;;;5119366;27;20043;-74
2023/09/20 02:03:18;;;;;;;8.20;2.83;;;;;;;;;;5113033;27;20284;-75
2023/09/20 02:05:47;;;;;;;7.53;2.50;;;;;;;;;;5113693;28;20535;-75
2023/09/20 02:08:13;;;;;;;10.52;2.60;;;;;;;;;;5112615;28;20050;-75
2023/09/20 02:10:39;;;;;;;;;;;;;;;;;;5114053;28;20130;-74
2023/09/20 02:13:05;;;;;;;7.43;2.80;;;;;;;;;;5114049;28;19970;-74
2023/09/20 02:15:34;;;;;;;8.07;2.78;;;;;;;;;;5110648;28;20035;-75
2023/09/20 02:18:03;;;;;;;15.07;3.03;;;;;;;;;;5113260;28;20118;-74
2023/09/20 02:20:34;;;;;;;11.43;2.60;;;;;;;;;;5133480;27;20556;-75
2023/09/20 02:23:00;;;;;;;9.25;2.50;;;;;;;;;;5133002;27;20668;-75
2023/09/20 02:25:26;;;;;;;7.90;2.85;;;;;;;;;;5133980;27;20083;-78
2023/09/20 02:27:54;;;;;;;10.13;2.80;;;;;;;;;;5134627;27;20038;-75
2023/09/20 02:30:24;;;;;;;8.40;2.67;;;;;;;;;;5134806;27;20043;-74
2023/09/20 02:32:51;;;;;;;7.13;2.65;;;;;;;;;;5133688;27;20074;-74
2023/09/20 02:35:18;;;;;;;9.98;2.65;;;;;;;;;;5134211;27;20071;-75
2023/09/20 02:37:46;;;;;;;13.70;2.65;;;;;;;;;;5132164;27;20058;-75
2023/09/20 02:40:13;;;;;;;11.20;3.30;;;;;;;;;;5131075;27;20053;-75
2023/09/20 02:42:49;;;;;;;9.88;2.63;;;;;;;;;;5105922;28;20610;-75
2023/09/20 02:45:15;;;;;;;9.27;2.70;;;;;;;;;;5097003;28;20050;-74
2023/09/20 02:47:43;;;;;;;10.50;2.70;;;;;;;;;;5113146;28;20498;-74
2023/09/20 02:50:11;;;;;;;10.35;2.60;;;;;;;;;;5097053;28;20047;-76
2023/09/20 02:52:37;;;;;;;11.68;2.85;;;;;;;;;;5094896;28;20096;-74
2023/09/20 02:55:08;;;;;;;8.75;2.78;;;;;;;;;;5113898;28;20051;-75
2023/09/20 02:57:37;;;;;;;9.90;3.00;;;;;;;;;;5107922;27;20043;-75
2023/09/20 03:00:08;;;;;;;9.77;2.95;;;;;;;;;;5121355;27;20547;-75
2023/09/20 03:02:34;;;;;;;14.90;2.83;;;;;;;;;;5120921;27;20414;-75
2023/09/20 03:05:00;;;;;;;;;;;;;;;;;;5101327;27;20049;-74
2023/09/20 03:07:26;;;;;;;11.20;2.85;;;;;;;;;;5098924;27;20474;-75
2023/09/20 03:09:52;;;;;;;;;;;;;;;;;;5107878;27;20061;-74
2023/09/20 03:12:19;;;;;;;10.77;2.88;;;;;;;;;;5120894;27;19977;-75
2023/09/20 03:14:45;;;;;;;8.02;2.78;;;;;;;;;;5137620;27;20050;-75
2023/09/20 03:17:12;;;;;;;;;;;;;;;;;;5137870;27;20197;-76
2023/09/20 03:19:38;;;;;;;8.98;2.80;;;;;;;;;;5135937;27;19918;-75
2023/09/20 03:22:06;;;;;;;7.18;2.70;;;;;;;;;;5115608;27;20099;-75
2023/09/20 03:24:35;;;;;;;8.68;2.78;;;;;;;;;;5126407;27;20047;-77
2023/09/20 03:27:01;;;;;;;8.43;2.90;;;;;;;;;;5137337;27;20050;-74
2023/09/20 03:29:28;;;;;;;12.10;3.45;;;;;;;;;;5137488;27;20454;-74
2023/09/20 03:31:53;;;;;;;;;;;;;;;;;;5137329;27;20055;-74
2023/09/20 03:34:21;;;;;;;11.25;2.65;;;;;;;;;;5136839;27;19983;-75
2023/09/20 03:36:47;;;;;;;10.70;3.33;;;;;;;;;;5119323;27;20054;-75
2023/09/20 03:39:14;;;;;;;10.38;2.63;;;;;;;;;;5115848;27;20481;-74
2023/09/20 03:41:40;;;;;;;11.32;2.88;;;;;;;;;;5106135;27;20045;-75
2023/09/20 03:44:06;;;;;;;11.52;2.60;;;;;;;;;;5120487;27;20125;-74
2023/09/20 03:46:33;;;;;;;10.95;3.03;;;;;;;;;;5135991;27;20053;-74
2023/09/20 03:48:59;;;;;;;;;;;;;;;;;;5120146;27;20046;-74
2023/09/20 03:51:25;;;;;;;8.73;2.80;;;;;;;;;;5136046;27;19919;-75
2023/09/20 03:53:51;;;;;;;10.02;2.75;;;;;;;;;;5114719;27;20051;-73
2023/09/20 03:56:17;;;;;;;9.05;2.63;;;;;;;;;;5122014;27;20083;-74
2023/09/20 03:58:43;;;;;;;12.32;3.10;;;;;;;;;;5135214;27;20042;-75
2023/09/20 04:01:10;;;;;;;;;;;;;;;;;;5120300;27;20133;-75
2023/09/20 04:03:36;;;;;;;10.63;3.00;;;;;;;;;;5137158;27;19927;-74
2023/09/20 04:06:02;;;;;;;11.07;3.35;;;;;;;;;;5119099;27;20287;-77
2023/09/20 04:08:28;;;;;;;7.97;3.10;;;;;;;;;;5135765;27;20133;-74
2023/09/20 04:10:54;;;;;;;;;;;;;;;;;;5119008;27;20133;-74
2023/09/20 04:13:21;;;;;;;10.45;3.03;;;;;;;;;;5136512;27;19966;-74
2023/09/20 04:15:47;;;;;;;7.35;2.88;;;;;;;;;;5136384;27;20066;-74
2023/09/20 04:18:13;;;;;;;9.52;3.22;;;;;;;;;;5118608;27;20395;-74
2023/09/20 04:20:40;;;;;;;8.43;2.78;;;;;;;;;;5115205;27;20053;-77
2023/09/20 04:23:06;;;;;;;8.60;3.08;;;;;;;;;;5096485;27;20433;-74
2023/09/20 04:25:32;;;;;;;7.53;2.90;;;;;;;;;;5136856;27;20038;-74
2023/09/20 04:27:58;;;;;;;9.63;2.67;;;;;;;;;;5118929;27;20106;-74
2023/09/20 04:30:24;;;;;;;;;;;;;;;;;;5137014;27;20388;-74
2023/09/20 04:32:51;;;;;;;13.18;3.47;;;;;;;;;;5135125;27;19919;-74
2023/09/20 04:35:17;;;;;;;12.82;3.65;;;;;;;;;;5116123;27;20071;-74
2023/09/20 04:37:44;;;;;;;;;;;;;;;;;;5131125;27;20396;-76
2023/09/20 04:40:10;;;;;;;6.53;2.60;;;;;;;;;;5118798;27;20003;-74
2023/09/20 04:42:38;;;;;;;11.00;3.10;;;;;;;;;;5134132;27;20046;-75
2023/09/20 04:45:07;;;;;;;11.23;3.55;;;;;;;;;;5115650;27;20186;-74
2023/09/20 04:47:35;;;;;;;9.20;2.85;;;;;;;;;;5098717;27;20047;-74
2023/09/20 04:50:02;;;;;;;11.38;3.20;;;;;;;;;;5098720;27;20051;-74
2023/09/20 04:52:28;;;;;;;9.88;2.90;;;;;;;;;;5131580;27;20043;-74
2023/09/20 04:54:54;;;;;;;;;;;;;;;;;;5098848;27;20054;-74
2023/09/20 04:57:20;;;;;;;10.40;2.88;;;;;;;;;;5135868;27;20310;-74
2023/09/20 04:59:46;;;;;;;;;;;;;;;;;;5136229;27;20053;-77
2023/09/20 05:02:14;;;;;;;9.48;3.00;;;;;;;;;;5118141;27;19923;-74
2023/09/20 05:04:40;;;;;;;7.93;3.13;;;;;;;;;;5090075;27;20050;-74
2023/09/20 05:07:07;;;;;;;12.25;3.40;;;;;;;;;;5096620;27;20091;-73
2023/09/20 05:09:36;;;;;;;11.57;3.33;;;;;;;;;;5115390;27;20122;-74
2023/09/20 05:12:03;;;;;;;12.85;3.08;;;;;;;;;;5120281;27;20130;-74
2023/09/20 05:14:30;;;;;;;14.93;3.08;;;;;;;;;;5136080;27;20043;-74
2023/09/20 05:16:56;;;;;;;8.93;3.03;;;;;;;;;;5134988;27;20038;-73
2023/09/20 05:19:23;;;;;;;;;;;;;;;;;;5135958;27;20050;-74
2023/09/20 05:21:49;;;;;;;9.82;3.00;;;;;;;;;;5112844;27;19930;-77
2023/09/20 05:24:15;;;;;;;;;;;;;;;;;;5114365;27;20047;-74
2023/09/20 05:26:41;;;;;;;9.32;3.10;;;;;;;;;;5099673;27;19969;-74
2023/09/20 05:29:07;;;;;;;;;;;;;;;;;;5118053;27;20039;-73
2023/09/20 05:31:33;;;;;;;9.10;2.67;;;;;;;;;;5135475;27;19988;-74
2023/09/20 05:33:59;;;;;;;;;;;;;;;;;;5118218;27;20046;-73
2023/09/20 05:36:27;;;;;;;10.00;2.83;;;;;;;;;;5134731;27;20218;-75
2023/09/20 05:38:53;;;;;;;9.10;3.08;;;;;;;;;;5129568;27;20059;-74
2023/09/20 05:41:19;;;;;;;12.65;2.90;;;;;;;;;;5097696;27;20500;-74
2023/09/20 05:43:45;;;;;;;11.77;2.88;;;;;;;;;;5097854;27;20420;-74
2023/09/20 05:46:13;;;;;;;9.50;2.95;;;;;;;;;;5097205;27;20039;-73
2023/09/20 05:48:39;;;;;;;10.32;2.63;;;;;;;;;;5114881;27;20047;-74
2023/09/20 05:51:06;;;;;;;10.82;2.80;;;;;;;;;;5100844;27;20497;-76
2023/09/20 05:53:33;;;;;;;8.85;2.60;;;;;;;;;;5108882;27;20445;-74
2023/09/20 05:56:10;;;;;;;9.60;2.58;;;;;;;;;;5118599;27;20046;-73
2023/09/20 05:58:38;;;;;;;7.38;3.55;;;;;;;;;;5135263;27;20102;-73
2023/09/20 06:01:05;;;;;;;8.68;2.63;;;;;;;;;;5117428;27;20453;-74
2023/09/20 06:03:31;;;;;;;7.50;2.90;;;;;;;;;;5096806;28;20043;-73
2023/09/20 06:05:57;;;;;;;16.83;3.28;;;;;;;;;;5114063;27;20049;-73
2023/09/20 06:08:23;;;;;;;;;;;;;;;;;;5113495;27;20043;-73
2023/09/20 06:10:49;;;;;;;10.13;3.10;;;;;;;;;;5132884;27;19929;-73
2023/09/20 06:13:15;;;;;;;7.88;2.63;;;;;;;;;;5113813;28;20133;-72
2023/09/20 06:15:41;;;;;;;;;;;;;;;;;;5115005;28;20095;-73
2023/09/20 06:18:08;;;;;;;12.40;3.30;;;;;;;;;;5118819;28;19923;-73
2023/09/20 06:20:36;;;;;;;7.85;2.55;;;;;;;;;;5114607;27;20475;-74
2023/09/20 06:23:03;;;;;;;8.82;2.90;;;;;;;;;;5132855;27;20087;-73
2023/09/20 06:25:29;;;;;;;8.65;2.60;;;;;;;;;;5109639;28;20047;-73
2023/09/20 06:27:55;;;;;;;10.60;3.30;;;;;;;;;;5081147;28;20489;-73
2023/09/20 06:30:21;;;;;;;;;;;;;;;;;;5114082;28;20042;-74
2023/09/20 06:32:47;;;;;;;10.15;2.92;;;;;;;;;;5115540;27;19919;-73
2023/09/20 06:35:20;;;;;;;10.13;3.20;;;;;;;;;;5118176;27;20094;-73
2023/09/20 06:37:47;;;;;;;9.57;2.85;;;;;;;;;;5116914;27;20386;-74
2023/09/20 06:40:23;;;;;;;11.48;2.90;;;;;;;;;;5102580;27;20100;-74
2023/09/20 06:42:53;;;;;;;7.10;2.67;;;;;;;;;;5104531;27;20135;-73
2023/09/20 06:45:24;;;;;;;9.50;2.95;;;;;;;;;;5118144;27;20091;-74
2023/09/20 06:47:50;;;;;;;11.27;3.20;;;;;;;;;;5101399;27;20051;-74
2023/09/20 06:50:17;;;;;;;;;;;;;;;;;;5121828;27;20125;-74
2023/09/20 06:52:43;;;;;;;10.18;3.13;;;;;;;;;;5137453;27;19970;-74
2023/09/20 06:55:13;;;;;;;10.90;3.22;;;;;;;;;;5135309;27;20134;-74
2023/09/20 06:57:39;;;;;;;11.75;3.42;;;;;;;;;;5128199;27;20039;-75
2023/09/20 07:00:15;;;;;;;7.90;3.00;;;;;;;;;;5091673;27;20589;-74
2023/09/20 07:02:41;;;;;;;8.52;2.80;;;;;;;;;;5099320;27;20046;-75
2023/09/20 07:05:07;;;;;;;;;;;;;;;;;;5113819;27;20054;-75
2023/09/20 07:07:33;;;;;;;10.90;4.05;;;;;;;;;;5128553;27;20370;-74
2023/09/20 07:10:00;;;;;;;;;;;;;;;;;;5096924;27;20065;-78
2023/09/20 07:12:26;;;;;;;14.18;3.42;;;;;;;;;;5121628;27;19923;-73
2023/09/20 07:14:52;;;;;;;7.75;3.30;;;;;;;;;;5113869;27;20122;-73
2023/09/20 07:17:18;;;;;;;12.20;3.38;;;;;;;;;;5127554;27;20057;-71
2023/09/20 07:19:47;;;;;;;;;;;;;;;;;;5131693;27;20050;-73
2023/09/20 07:22:13;;;;;;;11.35;2.92;;;;;;;;;;5116367;27;19932;-72
2023/09/20 07:24:44;;;;;;;11.15;3.20;;;;;;;;;;5119594;27;20050;-73
2023/09/20 07:27:10;;;;;;;11.18;3.30;;;;;;;;;;5121127;27;20197;-75
2023/09/20 07:29:36;;;;;;;;;;;;;;;;;;5121262;27;20062;-73
2023/09/20 07:32:04;;;;;;;8.55;3.33;;;;;;;;;;5118672;27;20368;-81
2023/09/20 07:34:33;;;;;;;10.70;3.03;;;;;;;;;;5102583;27;20075;-75
2023/09/20 07:36:59;;;;;;;9.48;3.30;;;;;;;;;;5122990;27;20039;-74
2023/09/20 07:39:25;;;;;;;;;;;;;;;;;;5117367;27;20412;-73
2023/09/20 07:41:52;;;;;;;11.60;3.45;;;;;;;;;;5127556;27;19926;-72
2023/09/20 07:44:23;;;;;;;9.75;3.13;;;;;;;;;;5116829;27;20050;-72
2023/09/20 07:46:52;;;;;;;11.02;3.20;;;;;;;;;;5128819;27;20054;-76
2023/09/20 07:49:19;;;;;;;9.98;3.05;;;;;;;;;;5116173;27;20415;-77
2023/09/20 07:51:45;;;;;;;10.52;3.05;;;;;;;;;;5104461;27;20135;-85
2023/09/20 07:54:14;;;;;;;;;;;;;;;;;;5113967;27;20046;-75
2023/09/20 07:56:43;;;;;;;9.20;2.90;;;;;;;;;;5127906;27;19954;-77
2023/09/20 07:59:09;;;;;;;7.63;2.83;;;;;;;;;;5102119;27;20050;-81
2023/09/20 08:01:36;;;;;;;10.27;3.05;;;;;;;;;;5116733;27;20047;-81
2023/09/20 08:04:06;;;;;;;7.07;2.80;;;;;;;;;;5114794;27;20118;-76
2023/09/20 08:06:33;;;;;;;9.10;2.85;;;;;;;;;;5120301;27;20049;-75
2023/09/20 08:08:59;;;;;;;10.38;2.85;;;;;;;;;;5116350;27;20100;-74
2023/09/20 08:11:26;;;;;;;12.38;3.13;;;;;;;;;;5116125;27;20047;-75
2023/09/20 08:13:53;;;;;;;12.90;3.30;;;;;;;;;;5128743;27;20394;-76
2023/09/20 08:16:20;;;;;;;7.43;2.80;;;;;;;;;;5122711;27;20502;-76
2023/09/20 08:21:34;;;;;;;9.40;2.90;;;;;;;;;;5119876;27;20051;-76
2023/09/20 09:00:24;;;;;;;7.95;2.35;;;;;;;;;;5132502;27;20404;-75
2023/09/20 09:02:57;;;;;;;4.88;2.33;;;;;;;;;;5132615;27;20069;-75
2023/09/20 09:05:25;;;;;;;8.15;2.65;;;;;;;;;;5098619;27;20054;-75
2023/09/20 09:07:52;;;;;;;6.47;2.30;;;;;;;;;;5115875;27;20044;-75
2023/09/20 09:10:18;;;;;;;5.00;2.10;;;;;;;;;;5111484;28;20401;-75
2023/09/20 09:12:44;;;;;;;5.05;2.30;;;;;;;;;;5112197;28;20071;-75
2023/09/20 09:15:11;;;;;;;4.85;2.17;;;;;;;;;;5115899;27;20503;-76
2023/09/20 09:17:47;;;;;;;5.03;2.30;;;;;;;;;;5098472;27;20054;-76
2023/09/20 09:20:15;;;;;;;9.73;2.97;;;;;;;;;;5132187;27;20096;-76
2023/09/20 09:22:41;;;;;;;7.00;2.20;;;;;;;;;;5097904;28;20039;-77
2023/09/20 09:25:15;;;;;;;7.13;2.40;;;;;;;;;;5095233;28;20047;-74
2023/09/20 09:27:42;;;;;;;4.35;2.15;;;;;;;;;;5095186;28;20052;-73
2023/09/20 09:30:08;;;;;;;4.28;2.00;;;;;;;;;;5111719;28;20047;-75
2023/09/20 09:32:37;;;;;;;6.25;1.98;;;;;;;;;;5094148;28;20067;-74
2023/09/20 09:35:05;;;;;;;6.70;2.15;;;;;;;;;;5115901;27;20039;-74
2023/09/20 09:37:33;;;;;;;9.18;2.80;;;;;;;;;;5108883;27;20540;-75
2023/09/20 09:40:04;;;;;;;7.07;2.13;;;;;;;;;;5112581;27;20057;-75
2023/09/20 09:42:30;;;;;;;7.20;2.60;;;;;;;;;;5094130;28;20100;-75
2023/09/20 09:44:57;;;;;;;6.05;2.20;;;;;;;;;;5111669;28;20504;-74
2023/09/20 09:47:26;;;;;;;5.47;2.40;;;;;;;;;;5093756;28;20096;-75
2023/09/20 09:49:53;;;;;;;8.95;2.33;;;;;;;;;;5111685;28;20489;-74
2023/09/20 09:52:26;;;;;;;6.28;2.30;;;;;;;;;;5106734;28;20048;-74
2023/09/20 09:54:53;;;;;;;6.28;2.00;;;;;;;;;;5094475;28;20507;-75
2023/09/20 09:57:19;;;;;;;6.03;2.22;;;;;;;;;;5113951;28;20262;-74
2023/09/20 09:59:48;;;;;;;4.20;2.28;;;;;;;;;;5128616;27;20050;-75
2023/09/20 10:02:20;;;;;;;6.90;2.33;;;;;;;;;;5114492;27;20120;-75
2023/09/20 10:04:50;;;;;;;6.22;2.40;;;;;;;;;;5115331;27;20051;-74
2023/09/20 10:07:19;;;;;;;6.60;2.22;;;;;;;;;;5108841;28;20054;-77
2023/09/20 10:09:50;;;;;;;6.20;2.70;;;;;;;;;;5094563;28;20054;-74
2023/09/20 10:12:22;;;;;;;10.55;2.72;;;;;;;;;;5111139;28;20047;-76
2023/09/20 10:14:48;;;;;;;4.50;2.25;;;;;;;;;;5116796;28;20141;-74
2023/09/20 10:17:21;;;;;;;8.00;2.55;;;;;;;;;;5102732;28;20043;-74
2023/09/20 10:19:53;;;;;;;5.70;2.00;;;;;;;;;;5111093;28;20043;-75
2023/09/20 10:22:23;;;;;;;8.57;2.60;;;;;;;;;;5120568;28;20077;-75
2023/09/20 10:25:00;;;;;;;6.35;2.20;;;;;;;;;;5131588;28;20555;-74
2023/09/20 10:27:31;;;;;;;7.53;2.38;;;;;;;;;;5120552;28;20066;-75
2023/09/20 10:30:00;;;;;;;6.28;2.20;;;;;;;;;;5130248;28;20137;-75
2023/09/20 10:32:32;;;;;;;7.03;2.35;;;;;;;;;;5113283;28;20047;-74
2023/09/20 10:35:20;;;;;;;7.47;2.13;;;;;;;;;;5131885;28;20095;-74
2023/09/20 10:38:07;;;;;;;5.20;2.00;;;;;;;;;;5130246;28;20107;-74
2023/09/20 10:40:33;;;;;;;;;;;;;;;;;;5106734;28;20401;-74
2023/09/20 10:43:00;;;;;;;6.20;2.05;;;;;;;;;;5117533;28;19930;-74
2023/09/20 10:45:31;;;;;;;7.07;2.00;;;;;;;;;;5093302;28;20081;-73
2023/09/20 10:47:57;;;;;;;7.32;2.20;;;;;;;;;;5093636;28;20143;-74
2023/09/20 10:50:23;;;;;;;;;;;;;;;;;;5094058;28;20039;-74
2023/09/20 10:52:56;;;;;;;3.47;2.10;;;;;;;;;;5097680;28;19923;-74
2023/09/20 10:55:28;;;;;;;6.38;2.47;;;;;;;;;;5112848;28;20492;-77
2023/09/20 10:57:59;;;;;;;5.97;2.40;;;;;;;;;;5111223;28;20100;-73
2023/09/20 11:00:30;;;;;;;6.85;2.15;;;;;;;;;;5110057;28;20138;-73
2023/09/20 11:02:56;;;;;;;8.15;2.30;;;;;;;;;;5110545;28;20101;-74
2023/09/20 11:05:28;;;;;;;5.05;2.30;;;;;;;;;;5077015;28;20096;-75
2023/09/20 11:07:55;;;;;;;5.32;2.20;;;;;;;;;;5093034;28;20039;-73
2023/09/20 11:10:21;;;;;;;8.07;2.08;;;;;;;;;;5111232;28;20082;-74
2023/09/20 11:12:50;;;;;;;8.82;2.72;;;;;;;;;;5130617;28;20507;-73
2023/09/20 11:15:16;;;;;;;8.13;2.67;;;;;;;;;;5101238;28;20048;-72
2023/09/20 11:17:42;;;;;;;7.10;2.20;;;;;;;;;;5109849;28;20075;-72
2023/09/20 11:20:11;;;;;;;8.13;2.58;;;;;;;;;;5097109;28;20184;-73
2023/09/20 11:22:37;;;;;;;5.07;2.25;;;;;;;;;;5123273;27;20043;-72
2023/09/20 11:25:07;;;;;;;7.97;2.22;;;;;;;;;;5119592;27;20031;-72
2023/09/20 11:27:38;;;;;;;12.38;2.90;;;;;;;;;;5113072;28;20136;-72
2023/09/20 11:30:04;;;;;;;7.57;2.63;;;;;;;;;;5132244;27;20476;-72
2023/09/20 11:32:31;;;;;;;7.60;2.75;;;;;;;;;;5133447;27;20047;-72
2023/09/20 11:34:57;;;;;;;7.32;2.20;;;;;;;;;;5113819;28;20069;-73
2023/09/20 11:37:23;;;;;;;7.05;2.45;;;;;;;;;;5107123;27;20047;-71
2023/09/20 11:39:50;;;;;;;6.38;2.70;;;;;;;;;;5132759;27;20043;-71
2023/09/20 11:42:26;;;;;;;8.75;2.47;;;;;;;;;;5132062;27;20051;-73
2023/09/20 11:45:10;;;;;;;6.38;2.58;;;;;;;;;;5114058;27;20046;-73
2023/09/20 11:47:42;;;;;;;5.38;2.35;;;;;;;;;;5097205;27;20051;-73
2023/09/20 11:50:12;;;;;;;6.20;2.40;;;;;;;;;;5110145;27;20130;-74
2023/09/20 11:52:42;;;;;;;6.82;2.50;;;;;;;;;;5128808;27;20090;-73
2023/09/20 11:55:11;;;;;;;6.15;2.70;;;;;;;;;;5128559;27;20050;-73
2023/09/20 11:57:37;;;;;;;7.32;2.90;;;;;;;;;;5113058;28;20044;-73
2023/09/20 12:00:05;;;;;;;9.60;2.60;;;;;;;;;;5109456;28;20042;-74
2023/09/20 12:02:31;;;;;;;9.35;3.05;;;;;;;;;;5124238;27;20039;-74
2023/09/20 12:04:57;;;;;;;11.75;3.00;;;;;;;;;;5096520;28;20039;-73
2023/09/20 12:07:23;;;;;;;9.73;2.80;;;;;;;;;;5124603;27;20430;-74
2023/09/20 12:09:49;;;;;;;5.85;2.22;;;;;;;;;;5101011;27;20467;-74
2023/09/20 12:12:16;;;;;;;6.10;2.80;;;;;;;;;;5107463;28;20507;-75
2023/09/20 12:14:42;;;;;;;8.15;2.67;;;;;;;;;;5118745;27;20054;-74
2023/09/20 12:17:08;;;;;;;8.13;2.58;;;;;;;;;;5099896;28;20127;-77
2023/09/20 12:19:34;;;;;;;8.20;2.67;;;;;;;;;;5089598;28;20055;-72
2023/09/20 12:22:01;;;;;;;8.18;2.95;;;;;;;;;;5111608;28;20047;-74
2023/09/20 12:24:28;;;;;;;7.85;3.10;;;;;;;;;;5112015;27;20113;-74
2023/09/20 12:26:56;;;;;;;4.68;2.38;;;;;;;;;;5112130;28;20552;-74
2023/09/20 12:29:22;;;;;;;7.78;2.80;;;;;;;;;;5096051;28;20500;-74
2023/09/20 12:31:49;;;;;;;7.53;2.80;;;;;;;;;;5117758;27;20527;-73
2023/09/20 12:34:16;;;;;;;9.35;2.75;;;;;;;;;;5100379;27;20046;-74
2023/09/20 12:36:42;;;;;;;7.05;2.33;;;;;;;;;;5111038;28;20066;-73
2023/09/20 12:39:10;;;;;;;5.72;2.35;;;;;;;;;;5112826;27;20408;-75
2023/09/20 12:41:42;;;;;;;5.03;1.98;;;;;;;;;;5114407;27;20051;-74
2023/09/20 12:44:08;;;;;;;7.90;2.33;;;;;;;;;;5116318;27;20040;-74
2023/09/20 12:46:36;;;;;;;4.03;2.20;;;;;;;;;;5121333;27;20365;-76
2023/09/20 12:49:04;;;;;;;6.93;1.98;;;;;;;;;;5130015;27;20066;-74
2023/09/20 12:51:30;;;;;;;4.97;2.13;;;;;;;;;;5117284;27;20046;-74
2023/09/20 12:53:56;;;;;;;5.13;2.03;;;;;;;;;;5093996;28;20043;-74
2023/09/20 12:56:22;;;;;;;7.32;2.38;;;;;;;;;;5119090;27;20542;-73
2023/09/20 12:58:50;;;;;;;5.22;2.17;;;;;;;;;;5131226;27;20031;-75
2023/09/20 13:01:16;;;;;;;7.78;2.35;;;;;;;;;;5131961;27;20044;-76
2023/09/20 13:03:43;;;;;;;5.47;2.20;;;;;;;;;;5121348;27;20054;-74
2023/09/20 13:06:14;;;;;;;6.55;2.40;;;;;;;;;;5103471;28;20055;-76
2023/09/20 13:08:40;;;;;;;4.43;2.03;;;;;;;;;;5092540;28;20104;-76
2023/09/20 13:11:10;;;;;;;5.55;2.10;;;;;;;;;;5117581;27;20071;-76
2023/09/20 13:13:38;;;;;;;5.32;2.10;;;;;;;;;;5108675;28;20546;-78
2023/09/20 13:16:06;;;;;;;3.92;1.70;;;;;;;;;;5094922;28;20039;-76
2023/09/20 13:18:33;;;;;;;4.72;2.05;;;;;;;;;;5121188;27;20051;-76
2023/09/20 13:20:59;;;;;;;4.88;1.90;;;;;;;;;;5108867;27;20127;-76
2023/09/20 13:23:26;;;;;;;4.15;1.80;;;;;;;;;;5114389;27;20050;-76
2023/09/20 13:25:53;;;;;;;5.22;1.83;;;;;;;;;;5113099;27;20130;-75
2023/09/20 13:28:19;;;;;;;4.07;2.13;;;;;;;;;;5094277;27;20043;-76
2023/09/20 13:30:45;;;;;;;5.60;1.98;;;;;;;;;;5128109;27;20048;-75
2023/09/20 13:33:14;;;;;;;4.18;1.83;;;;;;;;;;5093552;28;20040;-76
2023/09/20 13:35:41;;;;;;;4.57;1.95;;;;;;;;;;5107331;27;20078;-76
2023/09/20 13:38:07;;;;;;;3.90;1.70;;;;;;;;;;5119052;27;20035;-76
2023/09/20 13:40:34;;;;;;;3.55;1.90;;;;;;;;;;5098532;27;20130;-76
2023/09/20 13:43:00;;;;;;;5.10;1.83;;;;;;;;;;5119466;27;20438;-76
2023/09/20 13:45:26;;;;;;;4.18;1.75;;;;;;;;;;5098169;28;20625;-76
2023/09/20 13:47:53;;;;;;;3.47;1.83;;;;;;;;;;5099841;28;20043;-76
2023/09/20 13:50:19;;;;;;;5.63;1.75;;;;;;;;;;5109973;27;20486;-76
2023/09/20 13:52:46;;;;;;;6.78;2.38;;;;;;;;;;5109231;28;20157;-76
2023/09/20 13:55:14;;;;;;;4.63;1.70;;;;;;;;;;5109333;27;20122;-74
2023/09/20 13:57:40;;;;;;;4.07;1.80;;;;;;;;;;5120445;27;20450;-78
2023/09/20 14:00:12;;;;;;;3.50;1.65;;;;;;;;;;5131295;27;20395;-76
2023/09/20 14:02:40;;;;;;;3.85;1.98;;;;;;;;;;5126716;27;20429;-76
2023/09/20 14:05:14;;;;;;;4.65;1.80;;;;;;;;;;5116951;27;20055;-72
2023/09/20 14:07:41;;;;;;;3.55;1.65;;;;;;;;;;5101749;28;20086;-77
2023/09/20 14:10:07;;;;;;;4.25;1.90;;;;;;;;;;5110672;28;20484;-79
2023/09/20 14:12:33;;;;;;;5.78;1.80;;;;;;;;;;5115933;27;20070;-79
2023/09/20 14:14:59;;;;;;;5.43;1.67;;;;;;;;;;5108433;28;20051;-79
2023/09/20 14:17:26;;;;;;;9.07;1.73;;;;;;;;;;5112835;28;20043;-79
2023/09/20 14:19:52;;;;;;;3.45;1.50;;;;;;;;;;5107430;28;20100;-78
2023/09/20 14:22:18;;;;;;;3.85;1.60;;;;;;;;;;5095129;28;20065;-79
2023/09/20 14:24:45;;;;;;;5.22;2.00;;;;;;;;;;5093870;27;20044;-80
2023/09/20 14:27:11;;;;;;;5.00;1.85;;;;;;;;;;5105814;28;20043;-79
2023/09/20 14:29:37;;;;;;;4.22;1.60;;;;;;;;;;5117537;27;20044;-79
2023/09/20 14:32:04;;;;;;;3.50;1.75;;;;;;;;;;5112652;28;20055;-79
2023/09/20 14:34:31;;;;;;;3.13;1.60;;;;;;;;;;5123178;27;20240;-81
2023/09/20 14:36:57;;;;;;;4.47;1.70;;;;;;;;;;5113608;28;20480;-80
2023/09/20 14:39:25;;;;;;;5.32;1.70;;;;;;;;;;5090873;28;20200;-80
2023/09/20 14:41:51;;;;;;;5.20;2.00;;;;;;;;;;5119460;28;20048;-80
2023/09/20 14:44:17;;;;;;;5.13;1.92;;;;;;;;;;5097389;28;20039;-82
2023/09/20 14:46:43;;;;;;;6.55;1.95;;;;;;;;;;5083241;28;20044;-84
2023/09/20 14:49:11;;;;;;;2.83;1.60;;;;;;;;;;5123800;28;20047;-79
2023/09/20 14:51:37;;;;;;;4.95;1.77;;;;;;;;;;5123967;28;20050;-80
2023/09/20 14:54:04;;;;;;;5.38;1.70;;;;;;;;;;5132479;27;20047;-79
2023/09/20 14:56:31;;;;;;;5.32;1.70;;;;;;;;;;5126530;27;20044;-80
2023/09/20 14:58:57;;;;;;;3.25;1.52;;;;;;;;;;5117680;27;20043;-80
2023/09/20 15:01:23;;;;;;;5.82;1.60;;;;;;;;;;5108653;28;20135;-80
2023/09/20 15:03:49;;;;;;;3.72;1.60;;;;;;;;;;5123084;27;20050;-81
2023/09/20 15:06:23;;;;;;;4.65;1.58;;;;;;;;;;5127956;27;20041;-80
2023/09/20 15:08:49;;;;;;;2.78;1.30;;;;;;;;;;5106124;28;20039;-79
2023/09/20 15:11:16;;;;;;;6.40;1.98;;;;;;;;;;5130536;27;20434;-79
2023/09/20 15:13:44;;;;;;;4.57;1.60;;;;;;;;;;5141391;27;20044;-79
2023/09/20 15:16:16;;;;;;;5.10;1.85;;;;;;;;;;5127133;27;20124;-79
2023/09/20 15:18:46;;;;;;;5.00;1.70;;;;;;;;;;5127640;27;20043;-81
2023/09/20 15:21:15;;;;;;;5.07;1.70;;;;;;;;;;5133075;27;20588;-79
2023/09/20 15:23:43;;;;;;;7.93;1.65;;;;;;;;;;5111689;27;20040;-80
2023/09/20 15:26:11;;;;;;;5.15;1.60;;;;;;;;;;5105796;27;20154;-79
2023/09/20 15:28:38;;;;;;;4.85;1.65;;;;;;;;;;5108567;28;20146;-79
2023/09/20 15:31:05;;;;;;;4.43;1.65;;;;;;;;;;5109676;27;20130;-83